createdAt,value
2023-04-17T00:00:23.127Z,7.40
2023-04-17T00:02:51.163Z,8.30
2023-04-17T00:05:23.179Z,7.30
2023-04-17T00:07:54.219Z,7.70
2023-04-17T00:10:22.314Z,7.00
2023-04-17T00:12:50.264Z,8.73
2023-04-17T00:15:18.347Z,7.30
2023-04-17T00:17:46.421Z,8.23
2023-04-17T00:20:14.802Z,7.50
2023-04-17T00:22:42.814Z,7.70
2023-04-17T00:25:14.768Z,7.80
2023-04-17T00:27:43.356Z,8.60
2023-04-17T00:30:12.039Z,8.10
2023-04-17T00:32:40.080Z,8.03
2023-04-17T00:35:08.847Z,8.10
2023-04-17T00:37:36.816Z,8.67
2023-04-17T00:40:05.215Z,9.37
2023-04-17T00:42:35.898Z,9.17
2023-04-17T00:45:05.411Z,8.60
2023-04-17T00:47:33.984Z,8.20
2023-04-17T00:50:02.042Z,8.23
2023-04-17T00:52:31.081Z,9.00
2023-04-17T00:55:00.356Z,9.50
2023-04-17T00:57:28.869Z,8.20
2023-04-17T00:59:58.939Z,9.10
2023-04-17T01:02:27.190Z,7.73
2023-04-17T01:04:55.386Z,8.80
2023-04-17T01:07:23.664Z,9.30
2023-04-17T01:09:51.857Z,10.73
2023-04-17T01:12:21.176Z,10.10
2023-04-17T01:14:51.000Z,10.50
2023-04-17T01:17:20.645Z,9.30
2023-04-17T01:19:49.218Z,8.97
2023-04-17T01:22:17.416Z,9.00
2023-04-17T01:24:49.706Z,9.97
2023-04-17T01:27:17.690Z,9.73
2023-04-17T01:29:46.068Z,12.23
2023-04-17T01:32:14.009Z,11.00
2023-04-17T01:34:41.959Z,10.60
2023-04-17T01:37:10.233Z,10.20
2023-04-17T01:39:38.244Z,11.57
2023-04-17T01:42:07.834Z,10.23
2023-04-17T01:44:37.367Z,10.37
2023-04-17T01:47:05.604Z,10.60
2023-04-17T01:49:33.891Z,10.10
2023-04-17T01:52:01.915Z,9.83
2023-04-17T01:54:29.940Z,10.00
2023-04-17T01:56:58.116Z,11.20
2023-04-17T01:59:27.573Z,10.00
2023-04-17T02:01:57.759Z,10.43
2023-04-17T02:04:25.997Z,11.40
2023-04-17T02:06:55.163Z,11.20
2023-04-17T02:09:23.116Z,10.13
2023-04-17T02:11:51.060Z,10.80
2023-04-17T02:14:19.492Z,11.50
2023-04-17T02:16:48.851Z,13.40
2023-04-17T02:19:16.820Z,12.33
2023-04-17T02:21:44.776Z,11.07
2023-04-17T02:24:12.709Z,11.60
2023-04-17T02:26:40.942Z,10.70
2023-04-17T02:29:09.081Z,11.17
2023-04-17T02:31:38.412Z,10.27
2023-04-17T02:34:07.863Z,10.60
2023-04-17T02:36:35.964Z,11.47
2023-04-17T02:39:04.142Z,11.20
2023-04-17T02:41:32.081Z,11.97
2023-04-17T02:44:02.321Z,11.53
2023-04-17T02:46:30.305Z,12.60
2023-04-17T02:48:58.395Z,11.60
2023-04-17T02:51:27.952Z,11.50
2023-04-17T02:53:55.951Z,11.70
2023-04-17T02:56:23.902Z,12.67
2023-04-17T02:58:51.940Z,11.70
2023-04-17T03:01:19.909Z,12.33
2023-04-17T03:03:48.214Z,13.03
2023-04-17T03:06:16.616Z,12.40
2023-04-17T03:08:45.950Z,11.30
2023-04-17T03:11:14.232Z,11.70
2023-04-17T03:13:42.230Z,12.10
2023-04-17T03:16:10.234Z,12.10
2023-04-17T03:18:41.241Z,10.87
2023-04-17T03:21:09.542Z,11.37
2023-04-17T03:23:37.486Z,11.90
2023-04-17T03:26:06.938Z,11.10
2023-04-17T03:28:34.944Z,12.90
2023-04-17T03:31:02.934Z,12.00
2023-04-17T03:33:30.893Z,11.70
2023-04-17T03:35:58.865Z,13.53
2023-04-17T03:38:26.818Z,12.80
2023-04-17T03:40:54.820Z,13.33
2023-04-17T03:43:24.393Z,11.47
2023-04-17T03:45:52.395Z,12.70
2023-04-17T03:48:20.751Z,13.73
2023-04-17T03:50:49.212Z,13.23
2023-04-17T03:53:17.194Z,12.60
2023-04-17T03:55:45.214Z,13.23
2023-04-17T03:58:13.186Z,12.53
2023-04-17T04:00:42.552Z,12.80
2023-04-17T04:03:11.216Z,14.00
2023-04-17T04:05:39.358Z,12.73
2023-04-17T04:08:07.443Z,12.30
2023-04-17T04:10:35.473Z,13.63
2023-04-17T04:13:03.884Z,12.60
2023-04-17T04:15:32.115Z,13.93
2023-04-17T04:18:01.727Z,13.73
2023-04-17T04:20:29.823Z,14.63
2023-04-17T04:22:59.193Z,14.27
2023-04-17T04:25:28.821Z,12.90
2023-04-17T04:27:56.996Z,12.27
2023-04-17T04:30:25.458Z,13.00
2023-04-17T04:32:53.618Z,14.73
2023-04-17T04:35:25.766Z,13.63
2023-04-17T04:37:54.640Z,13.70
2023-04-17T04:40:22.596Z,13.03
2023-04-17T04:42:51.046Z,14.90
2023-04-17T04:45:18.991Z,15.37
2023-04-17T04:47:46.954Z,18.43
2023-04-17T04:50:14.983Z,18.90
2023-04-17T04:52:44.318Z,14.33
2023-04-17T04:55:12.578Z,15.50
2023-04-17T04:57:40.740Z,16.77
2023-04-17T05:00:10.045Z,15.13
2023-04-17T05:02:38.370Z,14.63
2023-04-17T05:05:09.145Z,16.80
2023-04-17T05:07:37.190Z,18.00
2023-04-17T05:10:07.648Z,16.77
2023-04-17T05:12:36.003Z,14.50
2023-04-17T05:15:04.245Z,15.00
2023-04-17T05:17:32.197Z,17.23
2023-04-17T05:20:00.205Z,15.10
2023-04-17T05:22:28.166Z,24.40
2023-04-17T05:24:56.147Z,23.80
2023-04-17T05:27:26.818Z,22.47
2023-04-17T05:29:55.091Z,20.03
2023-04-17T05:32:23.265Z,15.83
2023-04-17T05:34:51.209Z,14.40
2023-04-17T05:37:19.330Z,15.03
2023-04-17T05:39:47.302Z,14.10
2023-04-17T05:42:15.278Z,15.27
2023-04-17T05:44:44.755Z,17.17
2023-04-17T05:47:12.853Z,13.23
2023-04-17T05:49:40.809Z,13.00
2023-04-17T05:52:08.792Z,13.10
2023-04-17T05:54:36.725Z,13.40
2023-04-17T05:57:05.363Z,12.60
2023-04-17T05:59:33.451Z,12.57
2023-04-17T06:02:02.982Z,11.70
2023-04-17T06:04:31.428Z,13.53
2023-04-17T06:06:59.844Z,12.90
2023-04-17T06:09:27.779Z,16.33
2023-04-17T06:11:55.752Z,26.23
2023-04-17T06:14:23.769Z,16.03
2023-04-17T06:16:51.980Z,18.50
2023-04-17T06:19:22.309Z,14.13
2023-04-17T06:21:50.580Z,21.57
2023-04-17T06:24:18.992Z,17.03
2023-04-17T06:26:47.008Z,14.80
2023-04-17T06:29:15.528Z,16.33
2023-04-17T06:31:43.522Z,13.00
2023-04-17T06:34:11.551Z,13.40
2023-04-17T06:36:41.101Z,13.07
2023-04-17T06:39:09.156Z,13.10
2023-04-17T06:41:37.144Z,13.03
2023-04-17T06:44:05.307Z,14.13
2023-04-17T06:46:33.452Z,21.47
2023-04-17T06:49:02.596Z,14.50
2023-04-17T06:51:30.559Z,11.80
2023-04-17T06:54:00.300Z,11.47
2023-04-17T06:56:28.360Z,11.40
2023-04-17T06:58:57.815Z,16.63
2023-04-17T07:01:28.236Z,12.33
2023-04-17T07:03:56.273Z,12.30
2023-04-17T07:06:24.508Z,11.70
2023-04-17T07:08:53.528Z,10.40
2023-04-17T07:11:26.070Z,10.43
2023-04-17T07:13:54.009Z,11.97
2023-04-17T07:16:22.843Z,10.93
2023-04-17T07:18:51.382Z,11.03
2023-04-17T07:21:19.404Z,10.37
2023-04-17T07:23:47.826Z,12.20
2023-04-17T07:26:15.813Z,11.70
2023-04-17T07:28:45.468Z,11.10
2023-04-17T07:31:14.082Z,11.20
2023-04-17T07:33:42.830Z,12.33
2023-04-17T07:36:12.217Z,11.47
2023-04-17T07:38:41.854Z,12.47
2023-04-17T07:41:09.829Z,10.10
2023-04-17T07:43:37.778Z,10.47
2023-04-17T07:46:07.188Z,9.30
2023-04-17T07:48:35.235Z,8.60
2023-04-17T07:51:03.225Z,8.27
2023-04-17T07:53:31.431Z,7.23
2023-04-17T07:55:59.994Z,7.73
2023-04-17T07:58:28.057Z,7.23
2023-04-17T08:00:56.130Z,6.80
2023-04-17T08:03:25.853Z,7.10
2023-04-17T08:05:54.341Z,6.60
2023-04-17T08:08:23.753Z,7.00
2023-04-17T08:10:52.122Z,7.50
2023-04-17T08:13:20.389Z,7.57
2023-04-17T08:15:48.377Z,7.77
2023-04-17T08:18:16.373Z,8.50
2023-04-17T08:20:45.758Z,7.73
2023-04-17T08:23:13.817Z,7.40
2023-04-17T08:25:41.811Z,8.40
2023-04-17T08:28:09.989Z,7.60
2023-04-17T08:30:38.016Z,9.30
2023-04-17T08:33:06.235Z,7.80
2023-04-17T08:35:34.314Z,8.93
2023-04-17T08:38:03.729Z,8.10
2023-04-17T08:40:32.133Z,7.10
2023-04-17T08:43:02.686Z,7.40
2023-04-17T08:45:31.133Z,6.57
2023-04-17T08:48:00.170Z,6.53
2023-04-17T08:50:28.344Z,7.43
2023-04-17T08:52:56.318Z,7.20
2023-04-17T08:55:31.296Z,7.67
2023-04-17T08:58:01.418Z,8.00
2023-04-17T09:00:31.244Z,7.80
2023-04-17T09:03:00.414Z,7.57
2023-04-17T09:05:33.246Z,7.70
2023-04-17T09:08:09.260Z,8.17
2023-04-17T09:10:40.280Z,8.20
2023-04-17T09:13:09.084Z,8.20
2023-04-17T09:15:37.945Z,7.50
2023-04-17T09:18:06.405Z,7.90
2023-04-17T09:20:48.863Z,7.70
2023-04-17T09:23:16.901Z,8.83
2023-04-17T09:25:46.701Z,8.10
2023-04-17T09:28:16.151Z,9.10
2023-04-17T09:30:44.569Z,9.20
2023-04-17T09:33:12.970Z,7.13
2023-04-17T09:35:41.036Z,7.00
2023-04-17T09:38:09.498Z,6.60
2023-04-17T09:40:40.058Z,6.70
2023-04-17T09:43:10.905Z,6.67
2023-04-17T09:45:42.506Z,6.97
2023-04-17T09:48:13.128Z,6.40
2023-04-17T09:50:41.484Z,6.57
2023-04-17T09:53:10.110Z,7.10
2023-04-17T09:55:39.383Z,6.20
2023-04-17T09:58:09.791Z,6.43
2023-04-17T10:00:41.053Z,6.67
2023-04-17T10:03:09.894Z,6.50
2023-04-17T10:05:38.479Z,5.77
2023-04-17T10:08:07.606Z,5.63
2023-04-17T10:10:36.487Z,5.83
2023-04-17T10:13:09.107Z,6.50
2023-04-17T10:15:38.840Z,6.40
2023-04-17T10:18:24.554Z,5.90
2023-04-17T10:20:55.368Z,5.47
2023-04-17T10:23:32.230Z,6.43
2023-04-17T10:26:39.223Z,6.83
2023-04-17T10:29:07.398Z,6.33
2023-04-17T10:32:17.707Z,6.17
2023-04-17T10:34:46.183Z,6.20
2023-04-17T10:37:16.121Z,6.07
2023-04-17T10:39:56.455Z,6.97
2023-04-17T10:42:25.808Z,7.37
2023-04-17T10:45:01.910Z,6.27
2023-04-17T10:47:36.176Z,7.17
2023-04-17T10:50:06.422Z,6.93
2023-04-17T10:52:40.616Z,6.70
2023-04-17T10:55:14.348Z,7.73
2023-04-17T10:58:01.076Z,7.27
2023-04-17T11:00:32.651Z,7.50
2023-04-17T11:03:03.091Z,7.50
2023-04-17T11:05:32.257Z,7.70
2023-04-17T11:08:00.428Z,7.23
2023-04-17T11:10:28.399Z,7.40
2023-04-17T11:12:56.968Z,7.10
2023-04-17T11:15:29.677Z,7.63
2023-04-17T11:17:58.959Z,6.13
2023-04-17T11:20:30.001Z,6.87
2023-04-17T11:23:01.607Z,6.57
2023-04-17T11:25:31.692Z,6.73
2023-04-17T11:28:03.439Z,6.83
2023-04-17T11:30:32.992Z,7.17
2023-04-17T11:33:02.404Z,6.70
2023-04-17T11:35:33.592Z,7.43
2023-04-17T11:38:11.339Z,7.20
2023-04-17T11:40:51.807Z,6.80
2023-04-17T11:43:21.096Z,7.73
2023-04-17T11:45:51.587Z,8.07
2023-04-17T11:48:23.603Z,8.53
2023-04-17T11:50:57.669Z,7.30
2023-04-17T11:53:26.359Z,8.30
2023-04-17T11:56:13.156Z,8.67
2023-04-17T11:58:51.984Z,8.97
2023-04-17T12:01:21.863Z,7.83
2023-04-17T12:03:49.897Z,7.60
2023-04-17T12:06:19.534Z,8.00
2023-04-17T12:08:50.761Z,8.97
2023-04-17T12:11:25.242Z,8.57
2023-04-17T12:13:54.014Z,7.90
2023-04-17T12:16:22.665Z,8.17
2023-04-17T12:18:50.786Z,7.87
2023-04-17T12:21:21.731Z,8.50
2023-04-17T12:23:49.689Z,8.07
2023-04-17T12:26:17.981Z,8.40
2023-04-17T12:28:46.085Z,7.67
2023-04-17T12:31:14.283Z,7.90
2023-04-17T12:33:42.516Z,8.47
2023-04-17T12:36:11.150Z,7.70
2023-04-17T12:38:42.891Z,8.20
2023-04-17T12:41:11.476Z,6.87
2023-04-17T12:43:39.421Z,7.93
2023-04-17T12:46:07.615Z,7.73
2023-04-17T12:48:35.920Z,7.57
2023-04-17T12:51:03.937Z,7.80
2023-04-17T12:53:32.083Z,8.60
2023-04-17T12:56:01.441Z,8.27
2023-04-17T12:58:29.453Z,7.50
2023-04-17T13:00:57.653Z,7.40
2023-04-17T13:03:25.901Z,7.50
2023-04-17T13:05:53.901Z,7.70
2023-04-17T13:08:21.920Z,7.60
2023-04-17T13:10:49.981Z,8.07
2023-04-17T13:13:19.332Z,7.43
2023-04-17T13:15:47.437Z,8.23
2023-04-17T13:18:15.672Z,8.00
2023-04-17T13:20:43.809Z,7.60
2023-04-17T13:23:11.933Z,7.73
2023-04-17T13:25:40.034Z,7.70
2023-04-17T13:28:08.038Z,8.20
2023-04-17T13:30:37.887Z,7.10
2023-04-17T13:33:06.037Z,6.53
2023-04-17T13:35:34.151Z,6.53
2023-04-17T13:38:03.327Z,7.00
2023-04-17T13:40:31.863Z,7.30
2023-04-17T13:43:00.489Z,7.00
2023-04-17T13:45:28.651Z,8.03
2023-04-17T13:48:00.121Z,6.87
2023-04-17T13:50:28.614Z,7.17
2023-04-17T13:52:56.741Z,7.67
2023-04-17T13:55:25.365Z,7.73
2023-04-17T13:57:54.160Z,6.47
2023-04-17T14:00:23.123Z,6.77
2023-04-17T14:02:51.729Z,6.90
2023-04-17T14:05:21.212Z,7.53
2023-04-17T14:07:49.318Z,6.90
2023-04-17T14:10:17.416Z,6.10
2023-04-17T14:12:45.417Z,6.60
2023-04-17T14:15:14.095Z,6.40
2023-04-17T14:17:43.184Z,6.00
2023-04-17T14:20:12.338Z,6.73
2023-04-17T14:22:41.712Z,6.13
2023-04-17T14:25:10.315Z,6.13
2023-04-17T14:27:38.468Z,6.97
2023-04-17T14:30:07.606Z,6.00
2023-04-17T14:32:35.886Z,5.50
2023-04-17T14:35:04.290Z,5.93
2023-04-17T14:37:32.277Z,5.60
2023-04-17T14:40:01.829Z,6.50
2023-04-17T14:42:29.880Z,6.50
2023-04-17T14:44:57.975Z,5.87
2023-04-17T14:47:27.552Z,6.50
2023-04-17T14:49:57.559Z,6.40
2023-04-17T14:52:25.718Z,6.80
2023-04-17T14:54:53.807Z,6.30
2023-04-17T14:57:23.564Z,6.53
2023-04-17T14:59:52.124Z,6.40
2023-04-17T15:02:20.538Z,6.40
2023-04-17T15:04:50.358Z,6.40
2023-04-17T15:07:18.709Z,7.47
2023-04-17T15:09:47.594Z,6.80
2023-04-17T15:12:15.650Z,6.10
2023-04-17T15:14:45.268Z,6.23
2023-04-17T15:17:13.721Z,6.90
2023-04-17T15:19:41.691Z,6.40
2023-04-17T15:22:09.710Z,6.40
2023-04-17T15:24:37.720Z,6.50
2023-04-17T15:27:05.693Z,6.13
2023-04-17T15:29:33.830Z,6.40
2023-04-17T15:32:03.305Z,5.50
2023-04-17T15:34:31.366Z,5.47
2023-04-17T15:36:59.319Z,5.40
2023-04-17T15:39:27.436Z,5.80
2023-04-17T15:41:56.489Z,5.47
2023-04-17T15:44:24.484Z,6.37
2023-04-17T15:46:52.669Z,5.87
2023-04-17T15:49:22.509Z,6.70
2023-04-17T15:51:50.619Z,6.90
2023-04-17T15:54:18.698Z,8.13
2023-04-17T15:56:46.769Z,10.67
2023-04-17T15:59:14.955Z,11.93
2023-04-17T16:01:43.092Z,8.17
2023-04-17T16:04:11.112Z,10.90
2023-04-17T16:06:40.522Z,10.93
2023-04-17T16:09:09.669Z,10.80
2023-04-17T16:11:37.796Z,10.33
2023-04-17T16:14:05.721Z,10.00
2023-04-17T16:16:33.913Z,13.27
2023-04-17T16:19:01.943Z,12.77
2023-04-17T16:21:29.867Z,11.30
2023-04-17T16:23:59.420Z,9.87
2023-04-17T16:26:27.715Z,9.53
2023-04-17T16:28:55.923Z,9.30
2023-04-17T16:31:25.858Z,9.73
2023-04-17T16:33:53.848Z,9.60
2023-04-17T16:36:21.924Z,9.13
2023-04-17T16:38:49.902Z,8.67
2023-04-17T16:41:19.408Z,9.70
2023-04-17T16:43:47.383Z,7.80
2023-04-17T16:46:22.878Z,7.50
2023-04-17T16:48:52.959Z,7.10
2023-04-17T16:51:23.607Z,6.60
2023-04-17T16:53:51.657Z,6.77
2023-04-17T16:56:21.038Z,5.43
2023-04-17T16:58:49.307Z,5.77
2023-04-17T17:01:17.448Z,7.27
2023-04-17T17:03:46.498Z,7.23
2023-04-17T17:06:15.053Z,8.30
2023-04-17T17:08:46.505Z,8.17
2023-04-17T17:11:15.107Z,8.43
2023-04-17T17:13:47.225Z,7.03
2023-04-17T17:16:16.123Z,7.47
2023-04-17T17:18:44.553Z,6.97
2023-04-17T17:21:12.621Z,6.43
2023-04-17T17:23:41.345Z,6.80
2023-04-17T17:26:09.659Z,6.63
2023-04-17T17:28:38.268Z,6.13
2023-04-17T17:31:09.165Z,7.13
2023-04-17T17:33:37.653Z,6.83
2023-04-17T17:36:08.798Z,7.20
2023-04-17T17:38:36.780Z,7.67
2023-04-17T17:41:05.325Z,6.83
2023-04-17T17:43:33.468Z,7.40
2023-04-17T17:46:01.497Z,7.50
2023-04-17T17:48:31.058Z,8.43
2023-04-17T17:50:59.049Z,8.70
2023-04-17T17:53:27.425Z,8.67
2023-04-17T17:55:56.686Z,8.80
2023-04-17T17:58:25.029Z,8.50
2023-04-17T18:00:53.158Z,9.30
2023-04-17T18:03:21.869Z,8.77
2023-04-17T18:05:52.584Z,8.53
2023-04-17T18:08:20.697Z,8.70
2023-04-17T18:10:48.750Z,8.03
2023-04-17T18:13:16.840Z,8.77
2023-04-17T18:15:45.426Z,9.27
2023-04-17T18:18:13.665Z,7.87
2023-04-17T18:20:41.712Z,8.80
2023-04-17T18:23:11.170Z,9.00
2023-04-17T18:25:39.659Z,8.83
2023-04-17T18:28:07.903Z,9.77
2023-04-17T18:30:36.476Z,11.10
2023-04-17T18:33:05.348Z,9.90
2023-04-17T18:35:33.483Z,9.80
2023-04-17T18:38:01.481Z,9.90
2023-04-17T18:40:31.440Z,10.20
2023-04-17T18:42:59.685Z,10.80
2023-04-17T18:45:27.957Z,11.23
2023-04-17T18:47:56.201Z,10.20
2023-04-17T18:50:24.510Z,11.07
2023-04-17T18:52:52.499Z,10.13
2023-04-17T18:55:20.528Z,9.23
2023-04-17T18:57:49.849Z,10.00
2023-04-17T19:00:18.025Z,11.30
2023-04-17T19:02:47.568Z,11.10
2023-04-17T19:05:16.114Z,10.93
2023-04-17T19:07:44.197Z,9.70
2023-04-17T19:10:12.537Z,10.40
2023-04-17T19:12:42.384Z,11.50
2023-04-17T19:15:12.655Z,10.20
2023-04-17T19:17:40.764Z,11.40
2023-04-17T19:20:10.410Z,10.90
2023-04-17T19:22:38.609Z,11.40
2023-04-17T19:25:07.138Z,12.30
2023-04-17T19:27:35.143Z,11.87
2023-04-17T19:30:04.115Z,10.97
2023-04-17T19:32:33.550Z,11.87
2023-04-17T19:35:01.607Z,10.70
2023-04-17T19:37:29.734Z,11.73
2023-04-17T19:39:57.727Z,10.93
2023-04-17T19:42:26.638Z,10.87
2023-04-17T19:44:54.593Z,12.10
2023-04-17T19:47:23.925Z,10.40
2023-04-17T19:49:53.328Z,11.57
2023-04-17T19:52:21.287Z,11.77
2023-04-17T19:54:50.942Z,12.60
2023-04-17T19:57:19.132Z,12.37
2023-04-17T19:59:47.115Z,13.80
2023-04-17T20:02:15.970Z,13.67
2023-04-17T20:04:45.325Z,12.90
2023-04-17T20:07:14.774Z,13.77
2023-04-17T20:09:43.681Z,13.43
2023-04-17T20:12:11.970Z,14.83
2023-04-17T20:14:39.985Z,14.37
2023-04-17T20:17:08.293Z,15.63
2023-04-17T20:19:36.422Z,14.67
2023-04-17T20:22:04.550Z,14.40
2023-04-17T20:24:33.945Z,15.40
2023-04-17T20:27:02.065Z,13.63
2023-04-17T20:29:31.039Z,15.93
2023-04-17T20:31:59.027Z,16.90
2023-04-17T20:34:27.531Z,15.90
2023-04-17T20:36:55.574Z,15.90
2023-04-17T20:39:23.493Z,16.93
2023-04-17T20:41:52.769Z,17.90
2023-04-17T20:44:21.038Z,16.33
2023-04-17T20:46:49.071Z,19.00
2023-04-17T20:49:17.081Z,15.80
2023-04-17T20:51:45.380Z,16.50
2023-04-17T20:54:13.619Z,16.57
2023-04-17T20:56:42.008Z,15.63
2023-04-17T20:59:11.774Z,17.43
2023-04-17T21:01:39.762Z,16.10
2023-04-17T21:04:07.785Z,17.57
2023-04-17T21:06:35.780Z,19.87
2023-04-17T21:09:03.806Z,20.30
2023-04-17T21:11:32.026Z,18.00
2023-04-17T21:14:00.359Z,18.83
2023-04-17T21:16:29.736Z,18.03
2023-04-17T21:18:57.666Z,19.30
2023-04-17T21:21:26.144Z,18.60
2023-04-17T21:23:54.078Z,19.67
2023-04-17T21:26:22.099Z,19.33
2023-04-17T21:28:50.051Z,18.20
2023-04-17T21:31:18.026Z,18.67
2023-04-17T21:33:47.448Z,20.30
2023-04-17T21:36:15.761Z,18.70
2023-04-17T21:38:43.859Z,19.23
2023-04-17T21:41:11.889Z,18.80
2023-04-17T21:43:39.862Z,19.10
2023-04-17T21:46:10.629Z,20.20
2023-04-17T21:48:38.812Z,20.37
2023-04-17T21:51:08.191Z,17.77
2023-04-17T21:53:37.393Z,19.57
2023-04-17T21:56:06.989Z,18.57
2023-04-17T21:58:35.338Z,19.00
2023-04-17T22:01:04.043Z,20.30
2023-04-17T22:03:32.223Z,18.10
2023-04-17T22:06:00.312Z,20.40
2023-04-17T22:08:29.849Z,19.97
2023-04-17T22:10:57.884Z,19.10
2023-04-17T22:13:25.891Z,19.63
2023-04-17T22:15:54.543Z,19.90
2023-04-17T22:18:23.716Z,21.17
2023-04-17T22:20:51.694Z,21.60
2023-04-17T22:23:19.678Z,19.87
2023-04-17T22:25:49.018Z,20.57
2023-04-17T22:28:17.112Z,20.70
2023-04-17T22:30:45.166Z,20.97
2023-04-17T22:33:13.152Z,22.13
2023-04-17T22:35:41.060Z,20.80
2023-04-17T22:38:09.266Z,20.93
2023-04-17T22:40:37.671Z,20.83
2023-04-17T22:43:07.065Z,23.30
2023-04-17T22:45:35.125Z,20.60
2023-04-17T22:48:03.142Z,20.53
2023-04-17T22:50:32.460Z,20.90
2023-04-17T22:53:00.403Z,21.13
2023-04-17T22:55:28.538Z,20.87
2023-04-17T22:57:56.509Z,22.40
2023-04-17T23:00:26.036Z,20.60
2023-04-17T23:02:54.400Z,21.20
2023-04-17T23:05:22.382Z,19.50
2023-04-17T23:07:50.502Z,21.17
2023-04-17T23:10:18.657Z,20.90
2023-04-17T23:12:46.669Z,19.60
2023-04-17T23:15:14.670Z,21.03
2023-04-17T23:17:44.026Z,19.67
2023-04-17T23:20:13.035Z,19.70
2023-04-17T23:22:41.137Z,22.23
2023-04-17T23:25:10.251Z,21.73
2023-04-17T23:27:38.356Z,22.30
2023-04-17T23:30:07.619Z,20.20
2023-04-17T23:32:35.761Z,19.13
2023-04-17T23:35:06.323Z,20.47
2023-04-17T23:37:34.368Z,20.43
2023-04-17T23:40:02.405Z,20.40
2023-04-17T23:42:30.787Z,20.27
2023-04-17T23:44:58.727Z,21.10
2023-04-17T23:47:26.794Z,20.87
2023-04-17T23:49:54.843Z,19.70
2023-04-17T23:52:24.164Z,20.60
2023-04-17T23:54:52.090Z,19.43
2023-04-17T23:57:20.055Z,22.20
2023-04-17T23:59:48.092Z,18.77
